KCYS/CYS METAR and TAF weather

Enter ICAO airport designator
Station Type Date Time Source
KCYS METAR 2022/09/26 07:53 UTC NOAA

KCYS 260753Z AUTO 25007KT 10SM CLR 08/03 A3035 RMK AO2 SLP219 T00780028 $


Station Type Date Time Source
KCYS Decoded METAR 2022/09/26 07:53 UTC NOAA

CHEYENNE AIRPORT, WY, United States (KCYS) 41-09N 104-48W 1865M
Sep 26, 2022 - 03:53 AM EDT / 2022.09.26 0753 UTC
Wind: from the WSW (250 degrees) at 8 MPH (7 KT):0
Visibility: 10 mile(s):0
Sky conditions: clear
Temperature: 46.0 F (7.8 C)
Dew Point: 37.0 F (2.8 C)
Relative Humidity: 70%
Pressure (altimeter): 30.35 in. Hg (1027 hPa)
ob: KCYS 260753Z AUTO 25007KT 10SM CLR 08/03 A3035 RMK AO2 SLP219 T00780028
cycle: 8

Station Type Date Time Source
KCYS TAF 2022/09/26 06:22 UTC NOAA

TAF KCYS 260520Z 2606/2706 VRB06KT P6SM FEW250
FM261800 34010KT P6SM SKC

Example: see airport list